createdAt,value
2023-02-15T00:01:19.598Z,63.52
2023-02-15T00:03:49.660Z,63.53
2023-02-15T00:06:22.963Z,63.53
2023-02-15T00:08:53.438Z,63.37
2023-02-15T00:11:43.306Z,63.07
2023-02-15T00:14:41.068Z,62.33
2023-02-15T00:17:13.218Z,62.53
2023-02-15T00:19:52.592Z,62.88
2023-02-15T00:22:29.359Z,62.65
2023-02-15T00:25:01.810Z,62.46
2023-02-15T00:27:31.493Z,62.53
2023-02-15T00:30:11.457Z,62.22
2023-02-15T00:32:45.316Z,62.08
2023-02-15T00:35:14.596Z,61.13
2023-02-15T00:37:50.501Z,60.40
2023-02-15T00:40:28.934Z,60.77
2023-02-15T00:43:24.470Z,61.10
2023-02-15T00:46:00.319Z,61.33
2023-02-15T00:48:31.945Z,61.16
2023-02-15T00:51:01.352Z,61.43
2023-02-15T00:53:31.767Z,61.02
2023-02-15T00:56:08.456Z,60.90
2023-02-15T00:58:38.571Z,61.32
2023-02-15T01:01:13.410Z,60.64
2023-02-15T01:03:52.952Z,59.97
2023-02-15T01:06:29.573Z,59.76
2023-02-15T01:09:35.659Z,60.45
2023-02-15T01:12:12.090Z,60.44
2023-02-15T01:14:43.827Z,60.83
2023-02-15T01:17:15.635Z,60.50
2023-02-15T01:19:44.787Z,60.92
2023-02-15T01:22:13.357Z,61.00
2023-02-15T01:24:45.489Z,61.40
2023-02-15T01:27:20.532Z,60.78
2023-02-15T01:29:50.004Z,59.81
2023-02-15T01:32:28.493Z,59.79
2023-02-15T01:35:00.461Z,59.96
2023-02-15T01:37:31.750Z,60.01
2023-02-15T01:40:04.069Z,60.00
2023-02-15T01:45:55.171Z,59.95
2023-02-15T01:48:54.178Z,59.38
2023-02-15T01:51:25.685Z,59.26
2023-02-15T01:54:26.007Z,59.30
2023-02-15T01:56:59.772Z,59.60
2023-02-15T01:59:37.176Z,59.46
2023-02-15T02:02:11.363Z,58.37
2023-02-15T02:04:49.665Z,57.60
2023-02-15T02:07:30.849Z,58.18
2023-02-15T02:10:13.463Z,58.29
2023-02-15T02:12:46.530Z,58.77
2023-02-15T02:15:15.866Z,58.22
2023-02-15T02:18:17.777Z,58.32
2023-02-15T02:21:37.452Z,58.15
2023-02-15T02:24:42.308Z,58.20
2023-02-15T02:27:53.887Z,58.08
2023-02-15T02:31:23.095Z,58.41
2023-02-15T02:34:21.326Z,58.22
2023-02-15T02:37:07.509Z,58.47
2023-02-15T02:40:15.383Z,57.88
2023-02-15T02:42:54.427Z,56.96
2023-02-15T02:45:40.650Z,56.94
2023-02-15T02:48:18.700Z,57.10
2023-02-15T02:50:55.236Z,57.26
2023-02-15T02:53:32.871Z,57.28
2023-02-15T02:56:11.965Z,57.58
2023-02-15T02:59:01.764Z,57.63
2023-02-15T03:01:42.707Z,57.72
2023-02-15T03:04:39.786Z,57.93
2023-02-15T03:07:23.476Z,57.86
2023-02-15T03:09:54.646Z,57.76
2023-02-15T03:12:42.214Z,58.02
2023-02-15T03:15:23.646Z,58.39
2023-02-15T03:17:58.279Z,58.60
2023-02-15T03:20:51.203Z,58.33
2023-02-15T03:23:27.828Z,57.71
2023-02-15T03:26:02.189Z,58.03
2023-02-15T03:28:48.312Z,58.87
2023-02-15T03:31:20.802Z,58.66
2023-02-15T03:34:02.238Z,58.96
2023-02-15T03:37:24.037Z,58.98
2023-02-15T03:40:49.760Z,59.11
2023-02-15T03:43:59.512Z,59.16
2023-02-15T03:46:53.493Z,59.02
2023-02-15T03:49:25.803Z,59.00
2023-02-15T03:52:30.978Z,59.16
2023-02-15T03:55:05.481Z,59.20
2023-02-15T03:58:02.661Z,58.46
2023-02-15T04:04:37.994Z,58.50
2023-02-15T04:07:36.133Z,59.16
2023-02-15T04:10:33.708Z,59.43
2023-02-15T04:13:07.585Z,59.75
2023-02-15T04:16:01.029Z,59.91
2023-02-15T04:23:00.171Z,59.94
2023-02-15T04:25:32.773Z,59.92
2023-02-15T04:28:04.375Z,59.73
2023-02-15T04:31:04.024Z,58.74
2023-02-15T04:33:41.630Z,59.23
2023-02-15T04:36:16.788Z,59.75
2023-02-15T04:38:59.047Z,59.83
2023-02-15T04:41:58.261Z,60.12
2023-02-15T04:44:29.688Z,60.22
2023-02-15T04:47:48.494Z,60.36
2023-02-15T04:50:17.462Z,60.42
2023-02-15T04:52:48.661Z,60.43
2023-02-15T04:55:33.206Z,60.25
2023-02-15T04:58:03.688Z,59.22
2023-02-15T05:00:46.139Z,58.72
2023-02-15T05:03:23.642Z,59.02
2023-02-15T05:05:56.844Z,59.46
2023-02-15T05:08:31.624Z,59.81
2023-02-15T05:11:00.786Z,59.80
2023-02-15T05:13:58.337Z,59.81
2023-02-15T05:17:36.321Z,59.98
2023-02-15T05:20:51.434Z,59.98
2023-02-15T05:23:24.616Z,60.13
2023-02-15T05:26:47.454Z,60.29
2023-02-15T05:29:23.094Z,59.48
2023-02-15T05:32:50.334Z,58.59
2023-02-15T05:35:35.460Z,58.56
2023-02-15T05:38:13.240Z,58.70
2023-02-15T05:40:50.258Z,58.90
2023-02-15T05:43:22.394Z,58.79
2023-02-15T05:45:54.237Z,58.88
2023-02-15T05:48:24.673Z,59.05
2023-02-15T05:51:09.557Z,59.13
2023-02-15T05:53:42.566Z,58.94
2023-02-15T05:56:14.526Z,59.22
2023-02-15T05:58:44.500Z,59.24
2023-02-15T06:01:15.614Z,58.97
2023-02-15T06:03:50.798Z,59.27
2023-02-15T06:06:24.589Z,59.36
2023-02-15T06:08:56.620Z,58.39
2023-02-15T06:11:29.252Z,57.91
2023-02-15T06:14:03.287Z,58.16
2023-02-15T06:16:37.387Z,58.21
2023-02-15T06:19:11.743Z,58.16
2023-02-15T06:21:50.846Z,58.34
2023-02-15T06:24:44.664Z,58.45
2023-02-15T06:27:18.287Z,58.68
2023-02-15T06:29:50.154Z,58.69
2023-02-15T06:32:22.089Z,58.82
2023-02-15T06:35:20.712Z,58.93
2023-02-15T06:38:01.835Z,59.04
2023-02-15T06:40:58.811Z,58.94
2023-02-15T06:43:31.573Z,58.79
2023-02-15T06:46:13.793Z,58.83
2023-02-15T06:49:14.514Z,58.88
2023-02-15T06:52:28.168Z,58.29
2023-02-15T06:55:05.944Z,58.15
2023-02-15T06:57:42.302Z,58.37
2023-02-15T07:00:45.739Z,58.39
2023-02-15T07:03:17.612Z,58.13
2023-02-15T07:05:52.038Z,58.09
2023-02-15T07:08:51.441Z,57.72
2023-02-15T07:11:40.559Z,57.59
2023-02-15T07:14:14.965Z,57.12
2023-02-15T07:16:48.173Z,57.58
2023-02-15T07:19:18.935Z,57.48
2023-02-15T07:21:53.095Z,57.51
2023-02-15T07:24:28.665Z,56.66
2023-02-15T07:27:02.603Z,56.50
2023-02-15T07:29:39.252Z,56.33
2023-02-15T07:32:15.700Z,56.36
2023-02-15T07:34:49.378Z,56.48
2023-02-15T07:37:30.625Z,56.73
2023-02-15T07:40:01.723Z,56.71
2023-02-15T07:42:36.517Z,56.60
2023-02-15T07:45:45.583Z,56.41
2023-02-15T07:49:35.891Z,56.65
2023-02-15T07:52:13.039Z,56.66
2023-02-15T07:54:50.873Z,56.44
2023-02-15T07:57:30.892Z,56.57
2023-02-15T08:00:33.204Z,56.55
2023-02-15T08:03:18.418Z,56.97
2023-02-15T08:06:01.806Z,56.89
2023-02-15T08:09:02.722Z,57.01
2023-02-15T08:11:40.864Z,56.98
2023-02-15T08:14:41.724Z,56.00
2023-02-15T08:17:15.418Z,55.79
2023-02-15T08:19:49.907Z,55.84
2023-02-15T08:22:41.892Z,55.90
2023-02-15T08:25:13.769Z,55.52
2023-02-15T08:27:46.024Z,55.80
2023-02-15T08:30:42.052Z,55.76
2023-02-15T08:33:19.168Z,55.39
2023-02-15T08:35:51.195Z,55.81
2023-02-15T08:39:13.706Z,55.83
2023-02-15T08:41:55.428Z,55.70
2023-02-15T08:44:26.803Z,55.40
2023-02-15T08:47:07.737Z,54.47
2023-02-15T08:56:15.317Z,53.04
2023-02-15T08:58:48.526Z,52.25
2023-02-15T09:01:36.019Z,52.50
2023-02-15T09:04:11.259Z,52.67
2023-02-15T09:06:47.622Z,52.27
2023-02-15T09:09:17.708Z,52.26
2023-02-15T09:11:59.359Z,52.21
2023-02-15T09:14:35.903Z,52.74
2023-02-15T09:17:04.876Z,52.53
2023-02-15T09:19:35.000Z,52.40
2023-02-15T09:22:08.135Z,52.32
2023-02-15T09:24:36.623Z,52.24
2023-02-15T09:27:08.323Z,52.37
2023-02-15T09:29:38.218Z,51.80
2023-02-15T09:32:41.081Z,51.43
2023-02-15T09:35:37.182Z,50.76
2023-02-15T09:38:05.520Z,50.33
2023-02-15T09:40:42.499Z,50.16
2023-02-15T09:43:26.611Z,50.02
2023-02-15T09:46:25.073Z,48.93
2023-02-15T09:48:56.787Z,48.28
2023-02-15T09:51:46.240Z,49.04
2023-02-15T09:54:57.110Z,49.50
2023-02-15T09:57:52.531Z,49.86
2023-02-15T10:01:10.341Z,49.52
2023-02-15T10:03:44.653Z,49.08
2023-02-15T10:06:52.691Z,48.81
2023-02-15T10:09:44.263Z,48.94
2023-02-15T10:12:37.092Z,49.64
2023-02-15T10:15:16.455Z,49.64
2023-02-15T10:18:11.919Z,47.56
2023-02-15T10:21:01.956Z,47.40
2023-02-15T10:23:35.671Z,47.74
2023-02-15T10:26:24.197Z,47.53
2023-02-15T10:29:01.794Z,46.85
2023-02-15T10:31:55.236Z,46.57
2023-02-15T10:34:28.608Z,46.04
2023-02-15T10:37:12.272Z,46.79
2023-02-15T10:39:52.628Z,47.61
2023-02-15T10:43:02.146Z,48.03
2023-02-15T10:46:14.400Z,47.94
2023-02-15T10:49:06.372Z,47.14
2023-02-15T10:52:14.182Z,46.34
2023-02-15T10:55:04.348Z,45.53
2023-02-15T10:57:50.794Z,45.78
2023-02-15T11:00:31.558Z,46.34
2023-02-15T11:03:17.814Z,46.49
2023-02-15T11:06:05.102Z,46.15
2023-02-15T11:08:38.813Z,46.22
2023-02-15T11:11:10.387Z,45.92
2023-02-15T11:14:17.199Z,45.77
2023-02-15T11:17:00.486Z,46.47
2023-02-15T11:19:43.937Z,46.92
2023-02-15T11:22:17.799Z,46.64
2023-02-15T11:25:18.176Z,46.35
2023-02-15T11:28:20.287Z,45.95
2023-02-15T11:30:52.653Z,45.52
2023-02-15T11:33:28.289Z,45.71
2023-02-15T11:36:10.739Z,46.26
2023-02-15T11:38:43.908Z,46.51
2023-02-15T11:41:20.546Z,46.34
2023-02-15T11:44:00.161Z,46.04
2023-02-15T11:46:29.144Z,45.54
2023-02-15T11:49:03.641Z,45.78
2023-02-15T11:51:37.857Z,46.39
2023-02-15T11:54:10.904Z,46.66
2023-02-15T11:56:42.776Z,46.88
2023-02-15T11:59:18.442Z,46.84
2023-02-15T12:01:46.725Z,47.22
2023-02-15T12:04:31.513Z,47.47
2023-02-15T12:07:36.256Z,47.76
2023-02-15T12:10:51.632Z,46.89
2023-02-15T12:13:22.862Z,46.86
2023-02-15T12:15:54.350Z,46.89
2023-02-15T12:18:42.265Z,47.12
2023-02-15T12:21:30.035Z,47.20
2023-02-15T12:24:01.478Z,47.45
2023-02-15T12:26:33.043Z,46.33
2023-02-15T12:29:21.268Z,46.17
2023-02-15T12:31:50.511Z,46.58
2023-02-15T12:34:43.864Z,46.71
2023-02-15T12:37:26.768Z,46.96
2023-02-15T12:40:01.852Z,46.99
2023-02-15T12:42:45.659Z,46.48
2023-02-15T12:45:41.059Z,46.64
2023-02-15T12:48:17.537Z,47.24
2023-02-15T12:50:54.756Z,46.66
2023-02-15T12:53:26.650Z,46.84
2023-02-15T12:55:56.867Z,46.86
2023-02-15T12:58:28.922Z,46.91
2023-02-15T13:01:15.187Z,47.51
2023-02-15T13:03:58.611Z,47.70
2023-02-15T13:06:27.601Z,47.78
2023-02-15T13:09:00.710Z,46.93
2023-02-15T13:11:36.255Z,47.12
2023-02-15T13:14:24.403Z,47.08
2023-02-15T13:16:55.523Z,47.55
2023-02-15T13:19:54.946Z,47.62
2023-02-15T13:22:28.835Z,48.17
2023-02-15T13:25:21.784Z,48.26
2023-02-15T13:27:55.519Z,48.60
2023-02-15T13:30:36.505Z,48.46
2023-02-15T13:33:26.948Z,48.76
2023-02-15T13:36:41.764Z,48.86
2023-02-15T13:39:41.308Z,48.75
2023-02-15T13:42:34.427Z,48.85
2023-02-15T13:48:59.462Z,48.46
2023-02-15T13:51:47.534Z,48.62
2023-02-15T13:54:38.594Z,48.80
2023-02-15T13:57:39.151Z,49.08
2023-02-15T14:05:01.710Z,49.60
2023-02-15T14:08:12.585Z,48.63
2023-02-15T14:11:19.881Z,48.41
2023-02-15T14:14:58.452Z,48.73
2023-02-15T14:17:54.039Z,49.08
2023-02-15T14:21:22.708Z,49.54
2023-02-15T14:24:01.549Z,49.27
2023-02-15T14:26:52.933Z,49.30
2023-02-15T14:29:56.890Z,48.88
2023-02-15T14:32:46.963Z,48.90
2023-02-15T14:35:18.726Z,48.97
2023-02-15T14:38:43.389Z,49.03
2023-02-15T14:42:11.356Z,49.10
2023-02-15T14:44:48.263Z,49.46
2023-02-15T14:48:07.480Z,49.88
2023-02-15T14:50:44.088Z,50.61
2023-02-15T14:53:30.914Z,50.59
2023-02-15T14:56:20.084Z,50.72
2023-02-15T14:59:12.890Z,50.47
2023-02-15T15:02:16.822Z,50.37
2023-02-15T15:05:37.454Z,50.25
2023-02-15T15:08:46.839Z,50.08
2023-02-15T15:11:47.419Z,50.13
2023-02-15T15:14:40.557Z,50.11
2023-02-15T15:17:42.765Z,49.87
2023-02-15T15:20:27.553Z,50.04
2023-02-15T15:23:45.312Z,50.15
2023-02-15T15:26:33.735Z,50.19
2023-02-15T15:29:06.390Z,50.10
2023-02-15T15:31:48.776Z,50.22
2023-02-15T15:34:42.080Z,50.14
2023-02-15T15:37:34.030Z,50.22
2023-02-15T15:40:31.642Z,50.31
2023-02-15T15:43:22.585Z,50.47
2023-02-15T15:46:06.591Z,50.30
2023-02-15T15:48:40.724Z,50.10
2023-02-15T15:51:20.806Z,49.74
2023-02-15T15:54:03.631Z,49.53
2023-02-15T15:56:37.818Z,49.66
2023-02-15T15:59:19.513Z,49.27
2023-02-15T16:01:50.790Z,48.99
2023-02-15T16:04:30.785Z,49.04
2023-02-15T16:07:26.686Z,49.01
2023-02-15T16:10:01.836Z,48.91
2023-02-15T16:12:37.539Z,48.89
2023-02-15T16:16:00.112Z,48.79
2023-02-15T16:21:54.286Z,48.87
2023-02-15T16:25:11.921Z,49.04
2023-02-15T16:27:46.566Z,48.93
2023-02-15T16:30:30.087Z,49.25
2023-02-15T16:33:26.538Z,49.06
2023-02-15T16:35:59.449Z,48.95
2023-02-15T16:39:11.595Z,48.99
2023-02-15T16:41:49.184Z,49.00
2023-02-15T16:44:21.517Z,48.91
2023-02-15T16:46:54.418Z,49.23
2023-02-15T16:49:27.958Z,49.30
2023-02-15T16:52:02.899Z,49.50
2023-02-15T16:54:33.340Z,49.72
2023-02-15T16:57:06.834Z,50.06
2023-02-15T16:59:48.047Z,49.94
2023-02-15T17:02:56.024Z,49.95
2023-02-15T17:05:59.450Z,50.21
2023-02-15T17:09:05.386Z,50.16
2023-02-15T17:11:49.943Z,50.39
2023-02-15T17:14:47.887Z,50.86
2023-02-15T17:17:23.166Z,51.15
2023-02-15T17:20:16.281Z,51.51
2023-02-15T17:22:45.863Z,52.04
2023-02-15T17:25:31.286Z,52.32
2023-02-15T17:27:59.853Z,52.41
2023-02-15T17:30:39.880Z,52.62
2023-02-15T17:33:30.482Z,52.62
2023-02-15T17:36:10.926Z,52.72
2023-02-15T17:38:39.604Z,52.91
2023-02-15T17:41:14.696Z,53.28
2023-02-15T17:43:46.664Z,53.43
2023-02-15T17:46:26.668Z,53.66
2023-02-15T17:48:56.620Z,53.78
2023-02-15T17:51:25.769Z,53.83
2023-02-15T17:54:12.057Z,53.98
2023-02-15T17:56:45.928Z,53.98
2023-02-15T17:59:16.303Z,53.96
2023-02-15T18:02:07.727Z,54.05
2023-02-15T18:04:55.479Z,54.01
2023-02-15T18:07:52.505Z,54.18
2023-02-15T18:10:42.076Z,54.31
2023-02-15T18:13:14.889Z,54.29
2023-02-15T18:15:49.850Z,54.26
2023-02-15T18:18:27.568Z,54.37
2023-02-15T18:21:00.859Z,54.37
2023-02-15T18:23:38.216Z,54.15
2023-02-15T18:26:08.442Z,54.28
2023-02-15T18:28:38.312Z,54.31
2023-02-15T18:31:17.163Z,54.35
2023-02-15T18:33:49.060Z,54.31
2023-02-15T18:36:27.646Z,54.44
2023-02-15T18:38:56.171Z,54.48
2023-02-15T18:41:26.157Z,54.69
2023-02-15T18:44:11.172Z,54.74
2023-02-15T18:46:44.610Z,55.04
2023-02-15T18:49:25.158Z,55.26
2023-02-15T18:52:03.101Z,55.36
2023-02-15T18:54:32.813Z,55.58
2023-02-15T18:57:09.434Z,55.70
2023-02-15T18:59:38.954Z,55.79
2023-02-15T19:02:16.484Z,55.89
2023-02-15T19:04:47.627Z,56.11
2023-02-15T19:07:31.892Z,56.09
2023-02-15T19:10:01.295Z,56.03
2023-02-15T19:12:29.709Z,55.89
2023-02-15T19:15:01.924Z,55.86
2023-02-15T19:17:33.001Z,55.95
2023-02-15T19:20:07.956Z,55.72
2023-02-15T19:22:58.870Z,55.62
2023-02-15T19:25:32.057Z,55.67
2023-02-15T19:28:14.557Z,55.58
2023-02-15T19:30:45.045Z,55.67
2023-02-15T19:33:22.256Z,55.90
2023-02-15T19:35:54.138Z,55.85
2023-02-15T19:38:32.623Z,56.11
2023-02-15T19:41:13.316Z,56.21
2023-02-15T19:43:42.977Z,56.51
2023-02-15T19:46:16.873Z,56.65
2023-02-15T19:48:46.542Z,56.98
2023-02-15T19:51:28.631Z,57.11
2023-02-15T19:54:30.655Z,56.81
2023-02-15T19:57:04.670Z,56.38
2023-02-15T19:59:44.775Z,56.30
2023-02-15T20:02:16.788Z,56.50
2023-02-15T20:04:45.049Z,56.56
2023-02-15T20:07:25.888Z,56.86
2023-02-15T20:09:57.278Z,56.89
2023-02-15T20:12:26.529Z,57.15
2023-02-15T20:15:03.860Z,57.38
2023-02-15T20:17:33.246Z,57.49
2023-02-15T20:20:04.183Z,57.50
2023-02-15T20:22:37.994Z,57.48
2023-02-15T20:25:10.915Z,57.61
2023-02-15T20:27:50.252Z,57.58
2023-02-15T20:30:26.435Z,57.53
2023-02-15T20:32:55.339Z,57.70
2023-02-15T20:35:29.430Z,57.64
2023-02-15T20:38:03.153Z,57.74
2023-02-15T20:41:17.820Z,58.00
2023-02-15T20:43:52.298Z,57.83
2023-02-15T20:46:42.749Z,57.66
2023-02-15T20:49:13.716Z,57.12
2023-02-15T20:52:25.758Z,57.15
2023-02-15T20:55:03.986Z,57.60
2023-02-15T20:57:36.285Z,58.08
2023-02-15T21:00:10.235Z,58.35
2023-02-15T21:02:41.912Z,58.64
2023-02-15T21:05:18.742Z,59.00
2023-02-15T21:07:51.886Z,59.17
2023-02-15T21:10:25.361Z,59.46
2023-02-15T21:13:00.813Z,59.75
2023-02-15T21:15:36.264Z,59.89
2023-02-15T21:18:07.606Z,60.17
2023-02-15T21:21:05.746Z,59.92
2023-02-15T21:23:42.557Z,59.28
2023-02-15T21:26:24.891Z,59.54
2023-02-15T21:29:21.376Z,59.98
2023-02-15T21:31:53.178Z,60.30
2023-02-15T21:34:38.297Z,60.54
2023-02-15T21:37:29.858Z,60.82
2023-02-15T21:40:01.364Z,61.05
2023-02-15T21:42:50.214Z,61.26
2023-02-15T21:45:42.614Z,61.28
2023-02-15T21:48:12.817Z,61.47
2023-02-15T21:51:24.904Z,61.24
2023-02-15T21:54:18.952Z,60.15
2023-02-15T21:56:50.355Z,60.15
2023-02-15T21:59:39.528Z,60.58
2023-02-15T22:02:30.746Z,61.00
2023-02-15T22:05:11.781Z,61.24
2023-02-15T22:07:40.981Z,61.71
2023-02-15T22:10:12.943Z,61.97
2023-02-15T22:12:46.810Z,62.24
2023-02-15T22:15:59.146Z,62.28
2023-02-15T22:18:33.735Z,62.58
2023-02-15T22:21:03.848Z,62.80
2023-02-15T22:23:37.642Z,62.74
2023-02-15T22:26:09.851Z,62.35
2023-02-15T22:28:39.945Z,61.69
2023-02-15T22:31:15.295Z,61.56
2023-02-15T22:33:45.498Z,62.02
2023-02-15T22:36:27.497Z,62.41
2023-02-15T22:38:57.481Z,62.59
2023-02-15T22:41:28.607Z,62.89
2023-02-15T22:43:57.065Z,63.17
2023-02-15T22:46:26.321Z,63.16
2023-02-15T22:49:02.634Z,63.46
2023-02-15T22:51:33.117Z,63.63
2023-02-15T22:54:08.804Z,63.82
2023-02-15T22:56:55.169Z,64.07
2023-02-15T22:59:29.333Z,64.03
2023-02-15T23:02:06.060Z,64.20
2023-02-15T23:04:36.946Z,63.23
2023-02-15T23:07:11.485Z,62.65
2023-02-15T23:09:44.654Z,63.02
2023-02-15T23:12:27.327Z,63.41
2023-02-15T23:15:00.457Z,63.76
2023-02-15T23:17:32.007Z,64.20
2023-02-15T23:20:02.744Z,64.19
2023-02-15T23:22:35.837Z,64.28
2023-02-15T23:25:05.195Z,64.57
2023-02-15T23:27:54.441Z,64.72
2023-02-15T23:30:26.825Z,64.86
2023-02-15T23:32:56.010Z,64.84
2023-02-15T23:35:26.099Z,64.13
2023-02-15T23:37:56.583Z,63.85
2023-02-15T23:40:46.041Z,64.20
2023-02-15T23:43:21.760Z,64.77
2023-02-15T23:45:50.990Z,65.18
2023-02-15T23:48:36.588Z,65.33
2023-02-15T23:51:12.329Z,65.63
2023-02-15T23:53:39.512Z,66.03
2023-02-15T23:56:13.721Z,66.20
2023-02-15T23:58:45.000Z,66.31
